createdAt,value
2018-02-09T00:02:31.910Z,-0.50
2018-02-09T00:05:33.281Z,-0.80
2018-02-09T00:08:34.619Z,-1.00
2018-02-09T00:11:36.039Z,-0.70
2018-02-09T00:14:37.491Z,-0.50
2018-02-09T00:17:38.850Z,-1.50
2018-02-09T00:20:40.226Z,-1.00
2018-02-09T00:23:42.341Z,-0.90
2018-02-09T00:26:43.679Z,-1.00
2018-02-09T00:29:45.040Z,-0.60
2018-02-09T00:32:46.416Z,-1.10
2018-02-09T00:35:47.797Z,-1.20
2018-02-09T00:38:49.147Z,-0.70
2018-02-09T00:41:50.470Z,-1.20
2018-02-09T00:44:52.541Z,-1.00
2018-02-09T00:47:53.908Z,-0.70
2018-02-09T00:50:55.242Z,-1.30
2018-02-09T00:53:56.592Z,-1.00
2018-02-09T00:56:57.911Z,-1.10
2018-02-09T00:59:59.956Z,-1.10
2018-02-09T01:03:01.315Z,-1.30
2018-02-09T01:06:02.705Z,-1.00
2018-02-09T01:09:04.154Z,-0.50
2018-02-09T01:12:06.265Z,-1.10
2018-02-09T01:15:08.217Z,-1.50
2018-02-09T01:18:09.559Z,-1.00
2018-02-09T01:21:10.928Z,-0.90
2018-02-09T01:24:13.014Z,-1.00
2018-02-09T01:27:15.122Z,-1.00
2018-02-09T01:30:16.495Z,-0.90
2018-02-09T01:33:18.593Z,-0.90
2018-02-09T01:36:20.650Z,-0.90
2018-02-09T01:39:21.994Z,-1.40
2018-02-09T01:42:23.366Z,-1.20
2018-02-09T01:45:24.702Z,-1.10
2018-02-09T01:48:26.037Z,-0.90
2018-02-09T01:51:27.409Z,-1.10
2018-02-09T01:54:28.752Z,-1.20
2018-02-09T01:57:30.074Z,-1.00
2018-02-09T02:00:31.430Z,-0.70
2018-02-09T02:03:33.496Z,-1.00
2018-02-09T02:06:34.836Z,-1.00
2018-02-09T02:09:36.171Z,-1.00
2018-02-09T02:12:38.193Z,-1.10
2018-02-09T02:15:40.316Z,-0.90
2018-02-09T02:18:41.631Z,-0.80
2018-02-09T02:21:42.984Z,-0.90
2018-02-09T02:24:44.360Z,-1.30
2018-02-09T02:27:45.704Z,-0.50
2018-02-09T02:30:47.844Z,-1.20
2018-02-09T02:33:49.238Z,-1.10
2018-02-09T02:36:50.566Z,-1.00
2018-02-09T02:39:52.658Z,-1.10
2018-02-09T02:42:54.703Z,-1.10
2018-02-09T02:45:56.076Z,-1.00
2018-02-09T02:48:57.413Z,-1.10
2018-02-09T02:51:58.781Z,-1.00
2018-02-09T02:55:00.134Z,-0.70
2018-02-09T02:58:01.446Z,-1.20
2018-02-09T03:01:02.822Z,-1.40
2018-02-09T03:04:04.198Z,-1.30
2018-02-09T03:07:05.530Z,-1.50
2018-02-09T03:10:06.930Z,-1.00
2018-02-09T03:13:08.276Z,-1.20
2018-02-09T03:16:10.331Z,-1.20
2018-02-09T03:19:11.664Z,-0.90
2018-02-09T03:22:13.052Z,-1.10
2018-02-09T03:25:14.402Z,-1.20
2018-02-09T03:28:15.833Z,-1.00
2018-02-09T03:31:17.182Z,-1.00
2018-02-09T03:34:19.278Z,-1.00
2018-02-09T03:37:21.377Z,-1.00
2018-02-09T03:40:23.490Z,-0.90
2018-02-09T03:43:39.761Z,-1.00
2018-02-09T03:46:41.161Z,-1.00
2018-02-09T03:49:42.537Z,-1.10
2018-02-09T03:52:43.925Z,-1.00
2018-02-09T03:55:46.026Z,-1.00
2018-02-09T03:58:47.393Z,-1.70
2018-02-09T04:01:48.731Z,-1.00
2018-02-09T04:04:50.093Z,-0.60
2018-02-09T04:07:52.217Z,-1.10
2018-02-09T04:10:53.544Z,-1.10
2018-02-09T04:13:54.902Z,-1.10
2018-02-09T04:16:56.309Z,-1.10
2018-02-09T04:19:57.631Z,-1.10
2018-02-09T04:22:58.938Z,-1.10
2018-02-09T04:26:00.309Z,-1.00
2018-02-09T04:29:01.662Z,-0.80
2018-02-09T04:32:03.767Z,-1.20
2018-02-09T04:35:05.126Z,-1.20
2018-02-09T04:38:06.452Z,-1.40
2018-02-09T04:41:07.822Z,-1.40
2018-02-09T04:44:09.191Z,-1.20
2018-02-09T04:47:11.330Z,-1.20
2018-02-09T04:50:12.683Z,-1.20
2018-02-09T04:53:14.039Z,-1.10
2018-02-09T04:56:16.144Z,-1.20
2018-02-09T04:59:18.293Z,-1.10
2018-02-09T05:02:19.623Z,-1.10
2018-02-09T05:05:21.782Z,-1.10
2018-02-09T05:08:23.110Z,-1.20
2018-02-09T05:11:25.205Z,-1.10
2018-02-09T05:14:26.588Z,-0.90
2018-02-09T05:17:28.661Z,-1.00
2018-02-09T05:20:30.030Z,-0.40
2018-02-09T05:23:31.411Z,-1.00
2018-02-09T05:26:32.783Z,-1.30
2018-02-09T05:29:34.933Z,-1.00
2018-02-09T05:32:36.274Z,-1.10
2018-02-09T05:35:37.656Z,-1.00
2018-02-09T05:38:39.016Z,-1.10
2018-02-09T05:41:40.381Z,-1.20
2018-02-09T05:44:41.754Z,-1.00
2018-02-09T05:47:43.141Z,-0.90
2018-02-09T05:50:44.497Z,-0.70
2018-02-09T05:53:45.921Z,-0.70
2018-02-09T05:56:47.328Z,-1.40
2018-02-09T05:59:48.710Z,-1.00
2018-02-09T06:02:50.103Z,-1.20
2018-02-09T06:05:51.439Z,-1.20
2018-02-09T06:08:52.770Z,-1.20
2018-02-09T06:11:54.851Z,-1.10
2018-02-09T06:14:56.235Z,-1.00
2018-02-09T06:17:58.367Z,-1.10
2018-02-09T06:20:59.741Z,-1.50
2018-02-09T06:24:01.121Z,-1.50
2018-02-09T06:27:02.529Z,-1.20
2018-02-09T06:30:03.938Z,-1.70
2018-02-09T06:33:05.310Z,-1.20
2018-02-09T06:36:06.678Z,-1.10
2018-02-09T06:39:08.094Z,-1.20
2018-02-09T06:42:09.491Z,-1.00
2018-02-09T06:45:10.886Z,-1.30
2018-02-09T06:48:13.016Z,-0.90
2018-02-09T06:51:14.435Z,-1.00
2018-02-09T06:54:15.774Z,-0.70
2018-02-09T06:57:17.174Z,-1.20
2018-02-09T07:00:18.587Z,-1.30
2018-02-09T07:03:20.002Z,-1.30
2018-02-09T07:06:21.353Z,-1.00
2018-02-09T07:09:22.789Z,-1.30
2018-02-09T07:12:24.186Z,-1.20
2018-02-09T07:15:26.282Z,-1.10
2018-02-09T07:18:27.641Z,-1.30
2018-02-09T07:21:29.033Z,-0.90
2018-02-09T07:24:30.399Z,-1.00
2018-02-09T07:27:31.798Z,-1.50
2018-02-09T07:30:33.174Z,-1.30
2018-02-09T07:33:34.574Z,-1.30
2018-02-09T07:36:35.964Z,-1.00
2018-02-09T07:39:37.449Z,-1.80
2018-02-09T07:42:38.838Z,-1.30
2018-02-09T07:45:40.228Z,-1.20
2018-02-09T07:48:41.667Z,-1.20
2018-02-09T07:51:43.002Z,-1.00
2018-02-09T07:54:45.091Z,-1.20
2018-02-09T07:57:46.493Z,-1.50
2018-02-09T08:00:47.858Z,-1.00
2018-02-09T08:03:49.979Z,-1.10
2018-02-09T08:06:51.358Z,-0.90
2018-02-09T08:09:52.728Z,-1.00
2018-02-09T08:12:54.834Z,-1.00
2018-02-09T08:15:56.321Z,-1.30
2018-02-09T08:18:57.709Z,-1.30
2018-02-09T08:21:59.144Z,-1.30
2018-02-09T08:25:00.579Z,-1.20
2018-02-09T08:28:01.967Z,-1.40
2018-02-09T08:31:03.342Z,-0.80
2018-02-09T08:34:05.454Z,-1.00
2018-02-09T08:37:06.805Z,-1.20
2018-02-09T08:40:08.941Z,-0.80
2018-02-09T08:43:10.317Z,-1.40
2018-02-09T08:46:11.779Z,-0.90
2018-02-09T08:49:13.969Z,-0.80
2018-02-09T08:52:16.136Z,-0.80
2018-02-09T08:55:17.494Z,-0.80
2018-02-09T08:58:18.913Z,-0.70
2018-02-09T09:01:20.313Z,-1.10
2018-02-09T09:04:22.429Z,-0.80
2018-02-09T09:07:23.818Z,-0.70
2018-02-09T09:10:25.240Z,-0.70
2018-02-09T09:13:26.613Z,-0.90
2018-02-09T09:16:28.002Z,-0.90
2018-02-09T09:19:29.369Z,-1.00
2018-02-09T09:22:30.795Z,-0.80
2018-02-09T09:25:32.919Z,-0.50
2018-02-09T09:28:34.370Z,-0.80
2018-02-09T09:31:35.722Z,-0.50
2018-02-09T09:34:37.150Z,-0.40
2018-02-09T09:37:39.318Z,-0.30
2018-02-09T09:40:40.729Z,-0.30
2018-02-09T09:43:42.829Z,0.20
2018-02-09T09:46:44.987Z,0.60
2018-02-09T09:49:46.299Z,0.30
2018-02-09T09:52:47.648Z,0.30
2018-02-09T09:55:48.960Z,-0.10
2018-02-09T09:58:50.258Z,0.30
2018-02-09T10:01:51.598Z,0.30
2018-02-09T10:04:52.997Z,0.20
2018-02-09T10:07:54.386Z,0.40
2018-02-09T10:10:55.782Z,0.30
2018-02-09T10:13:57.843Z,0.20
2018-02-09T10:16:59.307Z,0.60
2018-02-09T10:20:00.779Z,0.30
2018-02-09T10:23:02.187Z,0.40
2018-02-09T10:26:03.565Z,0.30
2018-02-09T10:29:05.021Z,4.60
2018-02-09T10:32:06.309Z,3.70
2018-02-09T10:35:08.040Z,1.70
2018-02-09T10:38:09.383Z,1.10
2018-02-09T10:41:10.726Z,0.90
2018-02-09T10:44:12.093Z,0.90
2018-02-09T10:47:14.250Z,0.70
2018-02-09T10:50:15.611Z,0.30
2018-02-09T10:53:17.030Z,0.70
2018-02-09T10:56:18.372Z,0.40
2018-02-09T10:59:19.726Z,-0.20
2018-02-09T11:02:21.801Z,0.60
2018-02-09T11:05:23.144Z,0.50
2018-02-09T11:08:24.489Z,0.80
2018-02-09T11:11:25.885Z,1.00
2018-02-09T11:14:27.196Z,0.40
2018-02-09T11:17:28.559Z,0.60
2018-02-09T11:20:29.895Z,0.50
2018-02-09T11:23:31.920Z,0.80
2018-02-09T11:26:33.238Z,1.20
2018-02-09T11:29:34.587Z,0.90
2018-02-09T11:32:35.989Z,1.20
2018-02-09T11:35:37.335Z,0.80
2018-02-09T11:38:38.631Z,1.00
2018-02-09T11:41:39.950Z,1.10
2018-02-09T11:44:41.267Z,1.00
2018-02-09T11:47:43.363Z,1.10
2018-02-09T11:50:45.480Z,1.00
2018-02-09T11:53:46.831Z,1.00
2018-02-09T11:56:48.880Z,1.10
2018-02-09T11:59:50.269Z,1.00
2018-02-09T12:02:51.646Z,1.20
2018-02-09T12:05:53.017Z,1.60
2018-02-09T12:08:54.374Z,1.30
2018-02-09T12:11:55.734Z,1.20
2018-02-09T12:14:57.781Z,1.40
2018-02-09T12:17:59.209Z,1.20
2018-02-09T12:21:01.306Z,1.50
2018-02-09T12:24:02.606Z,1.30
2018-02-09T12:27:03.967Z,1.50
2018-02-09T12:30:05.454Z,1.30
2018-02-09T12:33:07.587Z,1.30
2018-02-09T12:36:08.940Z,1.10
2018-02-09T12:39:11.074Z,1.10
2018-02-09T12:42:12.431Z,0.90
2018-02-09T12:45:14.472Z,0.90
2018-02-09T12:48:15.821Z,0.90
2018-02-09T12:51:17.228Z,1.00
2018-02-09T12:54:18.559Z,1.00
2018-02-09T12:57:20.638Z,1.30
2018-02-09T13:00:21.995Z,0.90
2018-02-09T13:03:23.307Z,1.20
2018-02-09T13:06:24.692Z,1.20
2018-02-09T13:09:26.019Z,1.20
2018-02-09T13:12:45.962Z,1.40
2018-02-09T13:15:47.324Z,1.40
2018-02-09T13:18:48.762Z,1.70
2018-02-09T13:21:50.829Z,1.50
2018-02-09T13:24:52.157Z,1.20
2018-02-09T13:27:54.232Z,1.70
2018-02-09T13:30:55.547Z,1.80
2018-02-09T13:33:56.898Z,1.60
2018-02-09T13:37:32.815Z,1.90
2018-02-09T13:40:34.139Z,1.80
2018-02-09T13:43:35.541Z,1.70
2018-02-09T13:46:36.950Z,1.90
2018-02-09T13:49:38.322Z,1.80
2018-02-09T13:52:39.690Z,1.60
2018-02-09T13:55:41.030Z,1.60
2018-02-09T13:58:43.185Z,1.50
2018-02-09T14:01:45.303Z,1.30
2018-02-09T14:04:46.650Z,1.30
2018-02-09T14:07:47.991Z,1.00
2018-02-09T14:10:49.320Z,1.40
2018-02-09T14:13:50.640Z,1.10
2018-02-09T14:16:52.017Z,1.30
2018-02-09T14:19:53.381Z,1.40
2018-02-09T14:22:54.721Z,1.50
2018-02-09T14:25:56.059Z,1.30
2018-02-09T14:28:57.568Z,1.60
2018-02-09T14:31:58.911Z,1.50
2018-02-09T14:35:00.266Z,1.40
2018-02-09T14:38:01.607Z,1.50
2018-02-09T14:41:03.035Z,1.50
2018-02-09T14:44:05.159Z,1.60
2018-02-09T14:47:06.546Z,1.40
2018-02-09T14:50:07.953Z,1.20
2018-02-09T14:53:09.280Z,1.50
2018-02-09T14:56:10.626Z,1.10
2018-02-09T14:59:11.981Z,1.30
2018-02-09T15:02:13.312Z,1.30
2018-02-09T15:05:14.667Z,1.30
2018-02-09T15:08:16.048Z,1.10
2018-02-09T15:11:17.434Z,1.50
2018-02-09T15:14:18.768Z,1.50
2018-02-09T15:17:20.181Z,1.40
2018-02-09T15:20:21.586Z,1.40
2018-02-09T15:23:22.884Z,1.50
2018-02-09T15:26:24.178Z,1.40
2018-02-09T15:29:25.566Z,1.80
2018-02-09T15:32:26.926Z,1.30
2018-02-09T15:35:28.233Z,1.30
2018-02-09T15:38:29.525Z,1.10
2018-02-09T15:41:31.562Z,1.30
2018-02-09T15:44:33.681Z,1.20
2018-02-09T15:47:35.026Z,0.90
2018-02-09T15:50:37.102Z,1.20
2018-02-09T15:53:39.303Z,1.50
2018-02-09T15:56:40.613Z,1.10
2018-02-09T15:59:41.912Z,1.30
2018-02-09T16:02:44.053Z,1.10
2018-02-09T16:05:45.566Z,1.10
2018-02-09T16:08:46.861Z,1.10
2018-02-09T16:11:48.216Z,1.10
2018-02-09T16:14:49.543Z,1.10
2018-02-09T16:17:51.586Z,3.30
2018-02-09T16:20:52.943Z,3.40
2018-02-09T16:23:54.255Z,3.00
2018-02-09T16:26:55.575Z,2.30
2018-02-09T16:29:57.641Z,1.50
2018-02-09T16:32:58.934Z,1.50
2018-02-09T16:36:00.258Z,1.40
2018-02-09T16:39:01.598Z,1.30
2018-02-09T16:42:03.755Z,1.00
2018-02-09T16:45:05.054Z,1.20
2018-02-09T16:48:06.455Z,1.00
2018-02-09T16:51:07.802Z,0.80
2018-02-09T16:54:09.092Z,1.00
2018-02-09T16:57:10.408Z,0.80
2018-02-09T17:00:12.528Z,0.90
2018-02-09T17:03:13.827Z,0.80
2018-02-09T17:06:15.167Z,0.80
2018-02-09T17:09:17.269Z,0.80
2018-02-09T17:12:19.316Z,0.90
2018-02-09T17:15:20.707Z,0.90
2018-02-09T17:18:22.170Z,0.70
2018-02-09T17:21:23.504Z,1.00
2018-02-09T17:24:25.578Z,0.90
2018-02-09T17:27:26.944Z,0.80
2018-02-09T17:30:28.346Z,0.90
2018-02-09T17:33:29.635Z,0.60
2018-02-09T17:36:30.911Z,0.80
2018-02-09T17:39:32.211Z,0.90
2018-02-09T17:42:34.221Z,0.80
2018-02-09T17:45:35.546Z,0.80
2018-02-09T17:48:36.849Z,0.80
2018-02-09T17:51:38.269Z,0.70
2018-02-09T17:54:39.603Z,0.80
2018-02-09T17:57:40.936Z,0.80
2018-02-09T18:00:42.312Z,0.80
2018-02-09T18:03:43.680Z,0.80
2018-02-09T18:06:45.880Z,0.80
2018-02-09T18:09:47.944Z,0.80
2018-02-09T18:12:49.298Z,0.70
2018-02-09T18:15:50.624Z,0.80
2018-02-09T18:18:52.662Z,0.80
2018-02-09T18:21:54.001Z,0.90
2018-02-09T18:24:56.023Z,0.80
2018-02-09T18:27:57.332Z,0.90
2018-02-09T18:30:59.694Z,0.90
2018-02-09T18:34:01.055Z,0.70
2018-02-09T18:37:02.526Z,1.30
2018-02-09T18:40:04.599Z,1.00
2018-02-09T18:43:06.336Z,0.90
2018-02-09T18:46:07.690Z,0.70
2018-02-09T18:49:09.536Z,1.40
2018-02-09T18:52:11.517Z,1.10
2018-02-09T18:55:12.974Z,1.00
2018-02-09T18:58:15.058Z,1.00
2018-02-09T19:01:17.805Z,1.10
2018-02-09T19:04:20.665Z,1.10
2018-02-09T19:07:23.340Z,1.10
2018-02-09T19:10:25.745Z,1.00
2018-02-09T19:13:27.353Z,1.00
2018-02-09T19:16:29.280Z,1.00
2018-02-09T19:19:31.439Z,1.10
2018-02-09T19:22:32.788Z,0.90
2018-02-09T19:25:34.060Z,1.00
2018-02-09T19:28:35.480Z,1.10
2018-02-09T19:31:37.562Z,1.10
2018-02-09T19:34:38.914Z,1.00
2018-02-09T19:37:40.234Z,1.20
2018-02-09T19:40:41.568Z,1.10
2018-02-09T19:43:42.865Z,1.10
2018-02-09T19:46:44.928Z,1.10
2018-02-09T19:49:46.260Z,1.00
2018-02-09T19:52:48.397Z,1.20
2018-02-09T19:55:49.693Z,1.20
2018-02-09T19:58:51.384Z,1.20
2018-02-09T20:01:52.798Z,1.20
2018-02-09T20:04:54.133Z,1.20
2018-02-09T20:07:55.562Z,1.00
2018-02-09T20:10:56.955Z,1.20
2018-02-09T20:13:58.290Z,1.00
2018-02-09T20:16:59.630Z,1.20
2018-02-09T20:20:01.798Z,1.30
2018-02-09T20:23:03.295Z,1.30
2018-02-09T20:26:04.637Z,1.30
2018-02-09T20:29:06.104Z,1.30
2018-02-09T20:32:08.063Z,1.30
2018-02-09T20:35:09.602Z,1.40
2018-02-09T20:38:11.239Z,1.30
2018-02-09T20:41:12.701Z,1.30
2018-02-09T20:44:14.101Z,1.30
2018-02-09T20:50:56.318Z,1.30
2018-02-09T20:53:58.747Z,1.70
2018-02-09T20:57:00.907Z,1.50
2018-02-09T21:00:03.106Z,1.50
2018-02-09T21:03:04.449Z,1.50
2018-02-09T21:06:06.105Z,1.40
2018-02-09T21:09:07.495Z,1.40
2018-02-09T21:12:09.872Z,1.40
2018-02-09T21:15:11.222Z,1.50
2018-02-09T21:18:12.567Z,1.40
2018-02-09T21:21:14.042Z,1.50
2018-02-09T21:24:15.439Z,1.50
2018-02-09T21:27:16.760Z,1.50
2018-02-09T21:30:18.231Z,1.90
2018-02-09T21:33:19.629Z,2.50
2018-02-09T21:36:21.037Z,2.10
2018-02-09T21:39:23.191Z,1.70
2018-02-09T21:42:24.651Z,1.70
2018-02-09T21:45:26.039Z,1.60
2018-02-09T21:48:27.465Z,1.60
2018-02-09T21:51:28.846Z,1.50
2018-02-09T21:54:30.225Z,1.50
2018-02-09T21:57:31.588Z,1.70
2018-02-09T22:00:32.999Z,1.50
2018-02-09T22:03:35.084Z,1.50
2018-02-09T22:06:36.508Z,1.30
2018-02-09T22:09:37.870Z,1.40
2018-02-09T22:12:39.960Z,1.40
2018-02-09T22:15:41.296Z,1.40
2018-02-09T22:18:42.658Z,1.60
2018-02-09T22:21:44.034Z,1.40
2018-02-09T22:24:45.394Z,1.50
2018-02-09T22:27:47.464Z,1.50
2018-02-09T22:30:48.843Z,1.60
2018-02-09T22:33:50.119Z,1.80
2018-02-09T22:36:51.472Z,1.70
2018-02-09T22:39:52.795Z,1.60
2018-02-09T22:42:54.852Z,1.50
2018-02-09T22:45:56.177Z,1.90
2018-02-09T22:48:58.249Z,1.50
2018-02-09T22:51:59.607Z,1.80
2018-02-09T22:55:00.992Z,1.80
2018-02-09T22:58:02.345Z,1.40
2018-02-09T23:01:03.700Z,1.80
2018-02-09T23:04:05.817Z,1.50
2018-02-09T23:07:07.179Z,1.50
2018-02-09T23:10:09.325Z,1.40
2018-02-09T23:13:10.720Z,1.40
2018-02-09T23:16:12.224Z,1.60
2018-02-09T23:19:13.568Z,1.50
2018-02-09T23:22:14.943Z,1.60
2018-02-09T23:25:16.337Z,1.50
2018-02-09T23:28:17.711Z,1.80
2018-02-09T23:31:19.088Z,1.40
2018-02-09T23:34:20.428Z,1.50
2018-02-09T23:37:22.534Z,1.60
2018-02-09T23:40:24.702Z,1.60
2018-02-09T23:43:26.083Z,1.70
2018-02-09T23:46:27.446Z,1.50
2018-02-09T23:49:28.903Z,1.60
2018-02-09T23:52:30.284Z,1.40
2018-02-09T23:55:31.670Z,1.80
2018-02-09T23:58:33.038Z,1.60
